Time;durP1;ratioP1;P1;durP2;ratioP2;P2;SDS_P1;SDS_P2;PMS_P1;PMS_P2;Temp;Humidity;BMP_temperature;BMP_pressure;BME280_temperature;BME280_humidity;BME280_pressure;Samples;Min_cycle;Max_cycle;Signal;HPM_P1;HPM_P2
2024/03/28 00:01:09;;;;;;;7.47;4.90;;;7.30;99.90;;;;;;5032614;28;20547;-83
2024/03/28 00:03:35;;;;;;;6.50;4.68;;;7.40;99.90;;;;;;5034903;28;20037;-83
2024/03/28 00:06:02;;;;;;;6.78;5.30;;;7.40;99.90;;;;;;5034715;28;20025;-83
2024/03/28 00:08:28;;;;;;;7.00;4.80;;;7.30;99.90;;;;;;5033795;28;20033;-82
2024/03/28 00:10:55;;;;;;;4.68;3.78;;;7.30;99.90;;;;;;5031208;28;20041;-82
2024/03/28 00:13:22;;;;;;;6.07;4.18;;;7.30;99.90;;;;;;5024929;28;20112;-82
2024/03/28 00:16:02;;;;;;;6.05;3.95;;;7.30;99.90;;;;;;5034305;28;20021;-82
2024/03/28 00:18:28;;;;;;;5.47;3.20;;;7.30;99.90;;;;;;5038805;28;20032;-82
2024/03/28 00:20:59;;;;;;;4.70;3.70;;;7.40;99.90;;;;;;5039075;28;20075;-82
2024/03/28 00:23:25;;;;;;;4.80;3.55;;;7.40;99.90;;;;;;5033714;28;20026;-84
2024/03/28 00:25:58;;;;;;;6.25;3.92;;;7.40;99.90;;;;;;5033896;28;20373;-83
2024/03/28 00:28:24;;;;;;;7.50;4.35;;;7.40;99.90;;;;;;5022180;28;20030;-83
2024/03/28 00:30:51;;;;;;;4.30;3.03;;;7.40;99.90;;;;;;5023927;28;20026;-82
2024/03/28 00:33:17;;;;;;;4.70;2.75;;;7.40;99.90;;;;;;5032154;28;20069;-83
2024/03/28 00:35:48;;;;;;;5.25;2.85;;;7.40;99.90;;;;;;5025130;28;20112;-82
2024/03/28 00:38:14;;;;;;;4.88;2.83;;;7.30;99.90;;;;;;5021347;28;20028;-82
2024/03/28 00:40:54;;;;;;;4.10;2.85;;;7.40;99.90;;;;;;5031357;28;20029;-83
2024/03/28 00:43:21;;;;;;;4.82;2.55;;;7.30;99.90;;;;;;5032897;28;20477;-83
2024/03/28 00:45:47;;;;;;;4.25;2.67;;;7.30;99.90;;;;;;5032235;28;20474;-82
2024/03/28 00:48:15;;;;;;;3.83;2.50;;;7.30;99.90;;;;;;5032689;28;20108;-82
2024/03/28 00:50:41;;;;;;;5.07;2.20;;;7.30;99.90;;;;;;5026688;28;20038;-82
2024/03/28 00:53:07;;;;;;;4.50;2.47;;;7.30;99.90;;;;;;5023432;28;20034;-83
2024/03/28 00:55:35;;;;;;;4.95;2.80;;;7.30;99.90;;;;;;5031401;28;20033;-83
2024/03/28 00:58:01;;;;;;;5.07;3.03;;;7.20;99.90;;;;;;5033001;28;20052;-83
2024/03/28 01:00:26;;;;;;;9.25;2.88;;;7.20;99.90;;;;;;5033827;28;20025;-83
2024/03/28 01:02:52;;;;;;;4.82;2.70;;;7.20;99.90;;;;;;5013045;28;20038;-83
2024/03/28 01:05:17;;;;;;;3.50;2.83;;;7.20;99.90;;;;;;5025464;28;20029;-82
2024/03/28 01:07:43;;;;;;;7.43;3.05;;;7.10;99.90;;;;;;5022266;28;20022;-84
2024/03/28 01:10:09;;;;;;;5.80;3.25;;;7.10;99.90;;;;;;5028544;28;20037;-83
2024/03/28 01:12:35;;;;;;;4.47;2.65;;;7.10;99.90;;;;;;5029350;28;20116;-88
2024/03/28 01:15:00;;;;;;;4.50;2.53;;;7.10;99.90;;;;;;5031578;28;20104;-84
2024/03/28 01:17:26;;;;;;;4.75;2.70;;;7.10;99.90;;;;;;5030572;28;20033;-85
2024/03/28 01:19:52;;;;;;;5.45;3.00;;;7.10;99.90;;;;;;5033112;28;20029;-85
2024/03/28 01:22:19;;;;;;;6.32;3.63;;;7.10;99.90;;;;;;5029734;28;20064;-85
2024/03/28 01:24:44;;;;;;;3.97;3.03;;;7.00;99.90;;;;;;5032429;28;20035;-85
2024/03/28 01:27:10;;;;;;;3.90;3.00;;;7.00;99.90;;;;;;5029990;28;20021;-85
2024/03/28 01:29:35;;;;;;;5.75;2.92;;;7.00;99.90;;;;;;5029382;28;20037;-86
2024/03/28 01:32:02;;;;;;;3.85;2.17;;;7.00;99.90;;;;;;5028117;28;20022;-85
2024/03/28 01:34:27;;;;;;;4.07;2.80;;;6.90;99.90;;;;;;5019862;28;20454;-86
2024/03/28 01:36:54;;;;;;;4.47;2.92;;;6.90;99.90;;;;;;5030079;28;20045;-86
2024/03/28 01:39:19;;;;;;;5.30;3.15;;;6.90;99.90;;;;;;5029409;28;20041;-86
2024/03/28 01:41:49;;;;;;;9.45;3.63;;;6.90;99.90;;;;;;5024098;28;20393;-85
2024/03/28 01:44:16;;;;;;;4.05;2.47;;;6.90;99.90;;;;;;5026515;28;20037;-84
2024/03/28 01:46:43;;;;;;;5.25;3.33;;;6.90;99.90;;;;;;5028137;28;20025;-82
2024/03/28 01:49:09;;;;;;;5.15;3.13;;;6.90;99.90;;;;;;5029022;28;20473;-85
2024/03/28 01:51:36;;;;;;;4.35;2.42;;;6.90;99.90;;;;;;5027288;28;20498;-82
2024/03/28 01:54:04;;;;;;;3.40;2.47;;;6.80;99.90;;;;;;5018372;28;20068;-83
2024/03/28 01:56:29;;;;;;;4.93;2.60;;;6.80;99.90;;;;;;5030651;28;20490;-83
2024/03/28 01:58:55;;;;;;;3.83;2.47;;;6.80;99.90;;;;;;5023251;28;20029;-85
2024/03/28 02:01:21;;;;;;;4.22;2.97;;;6.80;99.90;;;;;;5035209;28;20599;-86
2024/03/28 02:03:46;;;;;;;4.03;2.50;;;6.80;99.90;;;;;;5031594;28;20060;-86
2024/03/28 02:06:12;;;;;;;5.15;2.40;;;6.70;99.90;;;;;;5033649;28;20025;-86
2024/03/28 02:08:37;;;;;;;5.43;2.30;;;6.70;99.90;;;;;;5022766;28;20022;-86
2024/03/28 02:11:03;;;;;;;5.75;2.90;;;6.70;99.90;;;;;;5030423;28;20346;-85
2024/03/28 02:13:29;;;;;;;4.30;2.55;;;6.60;99.90;;;;;;5031077;28;20045;-85
2024/03/28 02:15:54;;;;;;;3.75;2.63;;;6.60;99.90;;;;;;5034897;28;20053;-85
2024/03/28 02:18:21;;;;;;;7.57;2.53;;;6.60;99.90;;;;;;5033084;28;20104;-84
2024/03/28 02:20:47;;;;;;;5.20;3.00;;;6.60;99.90;;;;;;5027239;28;20037;-80
2024/03/28 02:23:18;;;;;;;4.38;2.90;;;6.60;99.90;;;;;;5032661;28;20024;-80
2024/03/28 02:25:47;;;;;;;4.45;2.53;;;6.60;99.90;;;;;;5024712;28;20062;-82
2024/03/28 02:28:12;;;;;;;3.17;2.50;;;6.60;99.90;;;;;;5033497;28;20028;-84
2024/03/28 02:30:39;;;;;;;6.20;2.97;;;6.70;99.90;;;;;;5029620;28;20100;-81
2024/03/28 02:33:05;;;;;;;5.63;2.28;;;6.70;99.90;;;;;;5030023;28;20040;-82
2024/03/28 02:35:30;;;;;;;5.55;2.13;;;6.70;99.90;;;;;;5032532;28;20021;-81
2024/03/28 02:37:59;;;;;;;2.88;1.98;;;6.70;99.90;;;;;;5027366;28;20060;-82
2024/03/28 02:40:26;;;;;;;5.35;2.42;;;6.80;99.90;;;;;;5025025;28;20120;-85
2024/03/28 02:42:52;;;;;;;4.60;2.20;;;6.80;99.90;;;;;;5030334;28;20021;-85
2024/03/28 02:45:18;;;;;;;3.60;1.83;;;6.80;99.90;;;;;;5032102;28;20092;-85
2024/03/28 02:47:43;;;;;;;4.10;2.05;;;6.70;99.90;;;;;;5034535;28;20034;-84
2024/03/28 02:50:09;;;;;;;5.22;2.00;;;6.70;99.90;;;;;;5032917;28;20387;-85
2024/03/28 02:52:36;;;;;;;3.67;1.63;;;6.80;99.90;;;;;;5027658;28;20045;-85
2024/03/28 02:55:02;;;;;;;3.53;2.22;;;6.70;99.90;;;;;;5034459;28;20043;-87
2024/03/28 02:57:28;;;;;;;3.83;2.03;;;6.70;99.90;;;;;;5033081;28;20026;-86
2024/03/28 02:59:53;;;;;;;3.47;1.85;;;6.70;99.90;;;;;;5032707;28;20037;-87
2024/03/28 03:02:19;;;;;;;3.67;1.85;;;6.70;99.90;;;;;;5033830;28;20473;-86
2024/03/28 03:04:44;;;;;;;4.10;2.17;;;6.80;99.90;;;;;;5035873;28;20087;-85
2024/03/28 03:07:10;;;;;;;3.70;2.38;;;6.80;99.90;;;;;;5026098;28;20034;-86
2024/03/28 03:09:36;;;;;;;3.53;1.80;;;6.80;99.90;;;;;;5030190;28;20043;-85
2024/03/28 03:12:01;;;;;;;4.50;2.40;;;6.80;99.90;;;;;;5035219;28;20029;-86
2024/03/28 03:14:28;;;;;;;2.90;1.73;;;6.80;99.90;;;;;;5032065;28;20120;-85
2024/03/28 03:16:54;;;;;;;2.63;1.42;;;6.90;99.90;;;;;;5033570;28;20025;-83
2024/03/28 03:19:19;;;;;;;3.63;1.33;;;6.90;99.90;;;;;;5033666;28;20469;-83
2024/03/28 03:21:52;;;;;;;4.13;1.85;;;7.00;99.90;;;;;;5031641;28;20029;-84
2024/03/28 03:24:18;;;;;;;;;;;7.00;99.90;;;;;;5032251;28;20028;-87
2024/03/28 03:26:49;;;;;;;3.58;1.88;;;7.00;99.90;;;;;;5032205;28;19909;-85
2024/03/28 03:34:52;;;;;;;3.38;2.00;;;7.00;99.90;;;;;;5035958;28;20045;-87
2024/03/28 03:37:22;;;;;;;4.88;2.05;;;6.90;99.90;;;;;;5035245;28;20041;-87
2024/03/28 03:39:55;;;;;;;5.05;2.13;;;6.80;99.90;;;;;;5033786;28;20477;-85
2024/03/28 03:42:21;;;;;;;3.22;1.80;;;6.80;99.90;;;;;;5029366;28;20033;-84
2024/03/28 03:44:47;;;;;;;3.67;1.75;;;6.70;99.90;;;;;;5035107;28;20032;-85
2024/03/28 03:47:13;;;;;;;4.03;1.50;;;6.70;99.90;;;;;;5034209;28;20068;-84
2024/03/28 03:49:45;;;;;;;4.15;1.60;;;6.70;99.90;;;;;;5027362;28;20026;-84
2024/03/28 03:52:11;;;;;;;2.80;1.73;;;6.70;99.90;;;;;;5030436;28;20116;-83
2024/03/28 03:54:38;;;;;;;3.10;1.73;;;6.70;99.90;;;;;;5034045;28;20489;-83
2024/03/28 03:57:04;;;;;;;3.22;1.90;;;6.70;99.90;;;;;;5028751;28;20025;-83
2024/03/28 03:59:29;;;;;;;4.72;1.63;;;6.80;99.90;;;;;;5024633;28;20029;-83
2024/03/28 04:01:55;;;;;;;4.15;2.00;;;6.80;99.90;;;;;;5032201;28;20080;-83
2024/03/28 04:04:20;;;;;;;3.17;1.73;;;6.80;99.90;;;;;;5032632;28;20029;-85
2024/03/28 04:06:46;;;;;;;3.75;1.58;;;6.90;99.90;;;;;;5028700;28;20030;-83
2024/03/28 04:09:11;;;;;;;4.43;1.60;;;6.90;99.90;;;;;;5032353;28;20033;-83
2024/03/28 04:11:37;;;;;;;4.35;1.30;;;6.90;99.90;;;;;;5033622;28;20021;-82
2024/03/28 04:14:03;;;;;;;4.15;1.40;;;7.00;99.90;;;;;;5023913;28;20498;-83
2024/03/28 04:16:29;;;;;;;4.05;1.67;;;7.00;99.90;;;;;;5029847;28;20034;-82
2024/03/28 04:18:54;;;;;;;7.53;1.98;;;7.00;99.90;;;;;;5033118;28;20045;-83
2024/03/28 04:21:20;;;;;;;2.83;1.45;;;7.00;99.90;;;;;;5034258;28;20025;-83
2024/03/28 04:23:46;;;;;;;4.22;2.15;;;7.00;99.90;;;;;;5032822;28;20079;-83
2024/03/28 04:26:12;;;;;;;3.92;1.67;;;7.00;99.90;;;;;;5025014;28;20112;-83
2024/03/28 04:28:37;;;;;;;2.83;1.55;;;7.00;99.90;;;;;;5030526;28;20109;-82
2024/03/28 04:31:03;;;;;;;4.38;1.98;;;7.00;99.90;;;;;;5027696;28;20108;-82
2024/03/28 04:33:29;;;;;;;3.10;1.63;;;7.00;99.90;;;;;;5029487;28;20033;-83
2024/03/28 04:35:54;;;;;;;2.60;1.65;;;6.90;99.90;;;;;;5033307;28;20405;-84
2024/03/28 04:38:20;;;;;;;3.78;1.95;;;6.90;99.90;;;;;;5030469;28;20033;-82
2024/03/28 04:40:45;;;;;;;4.63;1.92;;;6.90;99.90;;;;;;5021355;28;20037;-82
2024/03/28 04:43:11;;;;;;;3.78;1.88;;;6.90;99.90;;;;;;5023358;28;20081;-81
2024/03/28 04:45:37;;;;;;;3.88;1.80;;;6.80;99.90;;;;;;5030446;28;20385;-80
2024/03/28 04:48:03;;;;;;;4.03;1.85;;;6.80;99.90;;;;;;5028915;28;20022;-80
2024/03/28 04:50:29;;;;;;;4.20;1.98;;;6.80;99.90;;;;;;5030648;28;20412;-81
2024/03/28 04:52:55;;;;;;;3.70;2.50;;;6.70;99.90;;;;;;5032210;28;20041;-83
2024/03/28 04:55:20;;;;;;;4.72;2.35;;;6.80;99.90;;;;;;5031896;28;20036;-86
2024/03/28 04:57:46;;;;;;;6.40;2.15;;;6.80;99.90;;;;;;5030284;28;20033;-85
2024/03/28 05:00:12;;;;;;;3.78;2.67;;;6.70;99.90;;;;;;5033300;28;20037;-87
2024/03/28 05:02:38;;;;;;;5.25;2.65;;;6.70;99.90;;;;;;5026623;28;20044;-86
2024/03/28 05:05:05;;;;;;;6.22;2.53;;;6.60;99.90;;;;;;5026879;28;20029;-86
2024/03/28 05:07:32;;;;;;;5.03;2.95;;;6.60;99.90;;;;;;5032886;28;20029;-85
2024/03/28 05:09:58;;;;;;;4.13;2.42;;;6.60;99.90;;;;;;5030347;28;20038;-85
2024/03/28 05:12:24;;;;;;;5.53;3.00;;;6.50;99.90;;;;;;5031251;28;20036;-85
2024/03/28 05:14:50;;;;;;;6.25;3.47;;;6.50;99.90;;;;;;5023362;28;20146;-85
2024/03/28 05:17:16;;;;;;;8.88;2.80;;;6.50;99.90;;;;;;5029446;28;20021;-87
2024/03/28 05:19:41;;;;;;;5.07;3.15;;;6.50;99.90;;;;;;5027385;28;20045;-87
2024/03/28 05:22:07;;;;;;;6.40;4.00;;;6.50;99.90;;;;;;5019738;28;20022;-86
2024/03/28 05:24:33;;;;;;;6.68;3.58;;;6.50;99.90;;;;;;5031188;28;20037;-86
2024/03/28 05:26:59;;;;;;;6.55;3.33;;;6.40;99.90;;;;;;5029891;28;20458;-87
2024/03/28 05:29:25;;;;;;;5.93;3.67;;;6.40;99.90;;;;;;5031998;28;20076;-86
2024/03/28 05:31:50;;;;;;;4.82;3.00;;;6.40;99.90;;;;;;5027041;28;20029;-85
2024/03/28 05:34:16;;;;;;;4.75;3.55;;;6.40;99.90;;;;;;5032209;28;20044;-84
2024/03/28 05:36:42;;;;;;;6.57;3.58;;;6.40;99.90;;;;;;5031586;28;20030;-85
2024/03/28 05:39:08;;;;;;;6.50;4.00;;;6.40;99.90;;;;;;5032659;28;20609;-85
2024/03/28 05:41:35;;;;;;;6.20;4.50;;;6.40;99.90;;;;;;5036595;28;20033;-86
2024/03/28 05:44:01;;;;;;;6.85;3.90;;;6.40;99.90;;;;;;5031078;28;20108;-86
2024/03/28 05:46:27;;;;;;;6.68;4.15;;;6.40;99.90;;;;;;5034580;28;20025;-85
2024/03/28 05:48:53;;;;;;;7.47;4.70;;;6.30;99.90;;;;;;5036747;28;20112;-86
2024/03/28 05:51:19;;;;;;;6.47;4.22;;;6.30;99.90;;;;;;5027112;28;20501;-85
2024/03/28 05:53:48;;;;;;;12.25;4.95;;;6.20;99.90;;;;;;5029472;28;20091;-85
2024/03/28 05:56:15;;;;;;;6.63;4.57;;;6.20;99.90;;;;;;5032608;28;20033;-86
2024/03/28 05:58:40;;;;;;;6.88;4.28;;;6.10;99.90;;;;;;5030950;28;20033;-86
2024/03/28 06:01:06;;;;;;;7.00;5.05;;;6.20;99.90;;;;;;5025139;28;20029;-86
2024/03/28 06:03:32;;;;;;;8.20;4.78;;;6.20;99.90;;;;;;5026005;28;20475;-86
2024/03/28 06:05:57;;;;;;;7.70;4.55;;;6.20;99.90;;;;;;5035258;28;20076;-86
2024/03/28 06:08:23;;;;;;;8.38;4.63;;;6.10;99.90;;;;;;5038163;28;20034;-86
2024/03/28 06:10:48;;;;;;;6.82;4.57;;;6.20;99.90;;;;;;5034571;28;20029;-86
2024/03/28 06:13:16;;;;;;;6.60;4.90;;;6.20;99.90;;;;;;5026310;28;20116;-85
2024/03/28 06:15:42;;;;;;;8.63;5.28;;;6.10;99.90;;;;;;5022343;28;20409;-85
2024/03/28 06:18:08;;;;;;;6.43;4.68;;;6.10;99.90;;;;;;5029295;28;20028;-85
2024/03/28 06:20:34;;;;;;;10.45;6.40;;;6.20;99.90;;;;;;5033469;28;20446;-86
2024/03/28 06:23:00;;;;;;;8.25;5.40;;;6.20;99.90;;;;;;5027248;28;20057;-86
2024/03/28 06:25:25;;;;;;;6.60;4.28;;;6.20;99.90;;;;;;5032209;28;20033;-86
2024/03/28 06:27:51;;;;;;;8.18;5.45;;;6.30;99.90;;;;;;5027092;28;20067;-85
2024/03/28 06:30:25;;;;;;;8.65;5.63;;;6.40;99.90;;;;;;5031871;28;20034;-86
2024/03/28 06:32:51;;;;;;;8.57;5.13;;;6.50;99.90;;;;;;5031097;28;20068;-85
2024/03/28 06:35:17;;;;;;;8.82;5.65;;;6.60;99.90;;;;;;5025350;28;20034;-85
2024/03/28 06:37:43;;;;;;;9.15;4.90;;;6.60;99.90;;;;;;5029947;28;20023;-86
2024/03/28 06:40:09;;;;;;;9.93;5.00;;;6.70;99.90;;;;;;5024823;28;20529;-88
2024/03/28 06:42:35;;;;;;;6.57;4.72;;;6.90;99.90;;;;;;5026827;28;20057;-89
2024/03/28 06:45:01;;;;;;;7.88;5.22;;;7.10;99.90;;;;;;5029598;28;20486;-88
2024/03/28 06:47:26;;;;;;;6.32;4.60;;;7.20;99.90;;;;;;5029659;28;20030;-88
2024/03/28 06:49:52;;;;;;;6.78;4.20;;;7.30;99.90;;;;;;5031114;28;20517;-88
2024/03/28 06:52:18;;;;;;;7.20;3.72;;;7.30;99.90;;;;;;5031642;28;20071;-85
2024/03/28 06:54:43;;;;;;;6.32;4.18;;;7.40;99.90;;;;;;5036023;28;20037;-85
2024/03/28 06:57:09;;;;;;;6.07;3.75;;;7.40;99.90;;;;;;5035211;28;20020;-86
2024/03/28 06:59:34;;;;;;;5.70;3.88;;;7.50;99.90;;;;;;5035572;28;20067;-86
2024/03/28 07:02:00;;;;;;;6.72;3.88;;;7.60;99.90;;;;;;5025411;28;20025;-86
2024/03/28 07:04:25;;;;;;;4.95;3.42;;;7.60;99.90;;;;;;5026444;28;20040;-86
2024/03/28 07:06:51;;;;;;;4.25;2.88;;;7.70;99.90;;;;;;5027097;28;20029;-86
2024/03/28 07:09:17;;;;;;;5.45;3.03;;;7.80;99.90;;;;;;5020838;28;20034;-90
2024/03/28 07:11:45;;;;;;;4.93;2.70;;;7.90;99.90;;;;;;5033818;28;20072;-85
2024/03/28 07:14:12;;;;;;;5.78;3.50;;;8.00;99.90;;;;;;5034988;28;20045;-87
2024/03/28 07:16:38;;;;;;;5.78;3.38;;;8.10;99.90;;;;;;5029010;28;20018;-87
2024/03/28 07:19:05;;;;;;;6.65;2.97;;;8.20;99.90;;;;;;5024962;28;20056;-87
2024/03/28 07:21:31;;;;;;;4.50;2.90;;;8.20;99.90;;;;;;5031948;28;20034;-86
2024/03/28 07:23:57;;;;;;;6.70;3.92;;;8.30;99.90;;;;;;5017956;28;20109;-86
2024/03/28 07:26:22;;;;;;;6.00;2.70;;;8.40;99.90;;;;;;5029482;28;20128;-87
2024/03/28 07:28:48;;;;;;;5.93;3.28;;;8.40;99.90;;;;;;5034429;28;20025;-87
2024/03/28 07:31:14;;;;;;;4.32;2.30;;;8.40;99.90;;;;;;5018669;28;20486;-87
2024/03/28 07:33:39;;;;;;;6.97;3.40;;;8.50;99.90;;;;;;5014650;28;20034;-85
2024/03/28 07:36:05;;;;;;;4.18;2.67;;;8.50;99.90;;;;;;5031726;28;20025;-86
2024/03/28 07:38:31;;;;;;;4.40;2.55;;;8.50;99.90;;;;;;5033728;28;20457;-87
2024/03/28 07:40:57;;;;;;;3.58;2.70;;;8.50;99.90;;;;;;5030156;28;20013;-86
2024/03/28 07:43:22;;;;;;;5.55;2.85;;;8.50;99.90;;;;;;5019679;28;20152;-86
2024/03/28 07:45:48;;;;;;;4.32;2.90;;;8.50;99.90;;;;;;5034359;28;20028;-86
2024/03/28 07:48:14;;;;;;;3.60;2.60;;;8.50;99.90;;;;;;5033159;28;20037;-86
2024/03/28 07:50:40;;;;;;;4.80;2.50;;;8.50;99.90;;;;;;5029932;28;20037;-86
2024/03/28 07:53:05;;;;;;;4.30;2.25;;;8.60;99.90;;;;;;5021033;28;20037;-86
2024/03/28 07:55:31;;;;;;;3.55;2.08;;;8.70;99.90;;;;;;5034069;28;20096;-86
2024/03/28 07:57:57;;;;;;;3.83;2.20;;;8.70;99.90;;;;;;5033707;28;20025;-86
2024/03/28 08:00:22;;;;;;;3.20;1.85;;;8.70;99.90;;;;;;5029027;28;20021;-87
2024/03/28 08:02:49;;;;;;;3.53;1.95;;;8.70;99.90;;;;;;5024598;28;20034;-86
2024/03/28 08:05:16;;;;;;;4.45;1.63;;;8.70;99.90;;;;;;5027030;28;20033;-87
2024/03/28 08:07:42;;;;;;;2.08;1.40;;;8.70;99.90;;;;;;5015619;28;20029;-87
2024/03/28 08:10:09;;;;;;;2.28;1.42;;;8.60;99.90;;;;;;5037842;28;20070;-86
2024/03/28 08:12:35;;;;;;;2.17;1.25;;;8.60;99.90;;;;;;5033967;28;20061;-87
2024/03/28 08:15:02;;;;;;;2.50;1.13;;;8.50;99.90;;;;;;5028727;28;20041;-86
2024/03/28 08:17:28;;;;;;;3.35;1.35;;;8.50;99.90;;;;;;5037611;28;20067;-87
2024/03/28 08:19:54;;;;;;;1.92;0.90;;;8.40;99.90;;;;;;5034356;28;20033;-87
2024/03/28 08:22:21;;;;;;;2.58;1.20;;;8.40;99.90;;;;;;5024472;28;20025;-87
2024/03/28 08:24:47;;;;;;;3.30;1.05;;;8.40;99.90;;;;;;5025862;28;20251;-87
2024/03/28 08:27:13;;;;;;;3.95;1.00;;;8.30;99.90;;;;;;5031255;28;20033;-86
2024/03/28 08:29:39;;;;;;;2.83;1.23;;;8.30;99.90;;;;;;5021191;28;20076;-86
2024/03/28 08:32:05;;;;;;;3.88;0.90;;;8.20;99.90;;;;;;5020884;28;20116;-86
2024/03/28 08:34:31;;;;;;;2.28;1.13;;;8.20;99.90;;;;;;5024886;28;20548;-86
2024/03/28 08:36:57;;;;;;;3.88;1.08;;;8.20;99.90;;;;;;5032305;28;21165;-87
2024/03/28 08:39:24;;;;;;;3.55;1.25;;;8.20;99.90;;;;;;5034345;28;20025;-88
2024/03/28 08:41:52;;;;;;;3.40;1.15;;;8.20;99.90;;;;;;5031420;28;20090;-87
2024/03/28 08:44:19;;;;;;;3.92;1.17;;;8.10;99.90;;;;;;5032328;28;20030;-87
2024/03/28 08:46:45;;;;;;;2.25;1.02;;;8.10;99.90;;;;;;5028873;28;20042;-87
2024/03/28 08:49:11;;;;;;;3.33;1.00;;;8.00;99.90;;;;;;5025320;28;20104;-87
2024/03/28 08:51:37;;;;;;;1.92;0.88;;;8.10;99.90;;;;;;5031684;28;20056;-87
2024/03/28 08:54:05;;;;;;;2.00;0.98;;;8.10;99.90;;;;;;5031375;28;20033;-87
2024/03/28 08:56:32;;;;;;;2.58;1.25;;;8.10;99.90;;;;;;5032279;28;20033;-87
2024/03/28 08:58:58;;;;;;;3.22;1.00;;;8.00;99.90;;;;;;5025491;28;20468;-86
2024/03/28 09:01:24;;;;;;;3.83;0.95;;;8.00;99.90;;;;;;5031225;28;20036;-87
2024/03/28 09:03:52;;;;;;;1.83;0.90;;;8.00;99.90;;;;;;5029010;28;20034;-87
2024/03/28 09:06:19;;;;;;;3.13;0.98;;;8.10;99.90;;;;;;5029062;28;20023;-87
2024/03/28 09:08:45;;;;;;;1.63;0.88;;;8.00;99.90;;;;;;5026067;28;20021;-87
2024/03/28 09:11:12;;;;;;;1.88;1.00;;;8.00;99.90;;;;;;5032141;28;20040;-87
2024/03/28 09:13:38;;;;;;;2.55;1.60;;;8.00;99.90;;;;;;5031586;28;20414;-87
2024/03/28 09:16:09;;;;;;;2.92;1.10;;;8.00;99.90;;;;;;5029963;28;20555;-87
2024/03/28 09:18:35;;;;;;;2.72;1.08;;;8.00;99.90;;;;;;5025911;28;20033;-87
2024/03/28 09:21:01;;;;;;;2.67;1.08;;;8.00;99.90;;;;;;5029306;28;20109;-87
2024/03/28 09:23:27;;;;;;;2.30;1.20;;;7.90;99.90;;;;;;5031031;28;20036;-87
2024/03/28 09:25:52;;;;;;;3.38;1.02;;;7.90;99.90;;;;;;5028577;28;20029;-87
2024/03/28 09:28:18;;;;;;;3.33;1.15;;;7.90;99.90;;;;;;5019428;28;20167;-86
2024/03/28 09:30:44;;;;;;;2.67;1.00;;;7.90;99.90;;;;;;5020238;28;20394;-88
2024/03/28 09:33:10;;;;;;;1.80;1.00;;;7.90;99.90;;;;;;5031094;28;20033;-86
2024/03/28 09:35:36;;;;;;;2.55;1.23;;;7.90;99.90;;;;;;5028549;28;20607;-87
2024/03/28 09:38:03;;;;;;;3.60;0.90;;;8.00;99.90;;;;;;5030659;28;20061;-87
2024/03/28 09:40:30;;;;;;;2.83;0.80;;;8.00;99.90;;;;;;5032302;28;20028;-87
2024/03/28 09:42:57;;;;;;;2.05;0.80;;;8.10;99.90;;;;;;5031417;28;20083;-87
2024/03/28 09:45:27;;;;;;;3.08;1.33;;;8.10;99.90;;;;;;5032502;28;20528;-87
2024/03/28 09:47:55;;;;;;;5.35;1.80;;;8.10;99.90;;;;;;5013864;28;20022;-87
2024/03/28 09:50:23;;;;;;;3.30;0.95;;;8.10;99.90;;;;;;5029696;28;20057;-87
2024/03/28 09:52:52;;;;;;;2.40;1.10;;;8.10;99.90;;;;;;5031291;28;20041;-87
2024/03/28 09:55:17;;;;;;;3.08;1.10;;;8.20;99.90;;;;;;5029986;28;20393;-86
2024/03/28 09:57:43;;;;;;;2.70;1.05;;;8.10;99.90;;;;;;5022468;28;20022;-86
2024/03/28 10:00:12;;;;;;;2.95;0.80;;;8.10;99.90;;;;;;5024779;28;20092;-87
2024/03/28 10:02:55;;;;;;;1.88;0.90;;;8.20;99.90;;;;;;5023717;28;20026;-87
2024/03/28 10:05:21;;;;;;;1.60;0.70;;;8.30;99.90;;;;;;5032046;28;20478;-87
2024/03/28 10:07:50;;;;;;;3.40;0.75;;;8.30;99.90;;;;;;5026089;28;20017;-87
2024/03/28 10:10:17;;;;;;;1.95;0.70;;;8.30;99.90;;;;;;5029744;28;20040;-87
2024/03/28 10:12:56;;;;;;;2.22;0.85;;;8.30;99.90;;;;;;5015249;28;20026;-87
2024/03/28 10:15:22;;;;;;;3.05;1.10;;;8.40;99.90;;;;;;5030403;28;20042;-86
2024/03/28 10:18:05;;;;;;;1.10;0.60;;;8.30;99.90;;;;;;5030021;28;20043;-87
2024/03/28 10:20:32;;;;;;;1.27;0.60;;;8.30;99.90;;;;;;5027707;28;20516;-86
2024/03/28 10:22:58;;;;;;;1.13;0.60;;;8.20;99.90;;;;;;5024538;28;20516;-85
2024/03/28 10:25:25;;;;;;;3.50;0.60;;;8.10;99.90;;;;;;5036971;28;20432;-87
2024/03/28 10:28:00;;;;;;;0.98;0.60;;;8.10;99.90;;;;;;5036544;28;20026;-85
2024/03/28 10:30:26;;;;;;;1.90;0.70;;;8.10;99.90;;;;;;5032872;28;20040;-86
2024/03/28 10:32:58;;;;;;;1.33;0.80;;;8.10;99.90;;;;;;5016918;28;20080;-86
2024/03/28 10:35:25;;;;;;;1.25;0.35;;;8.20;99.90;;;;;;5033130;28;20113;-86
2024/03/28 10:38:04;;;;;;;0.70;0.30;;;8.20;99.90;;;;;;5035688;28;20652;-85
2024/03/28 10:40:32;;;;;;;1.25;0.30;;;8.20;99.90;;;;;;5034997;28;20030;-86
2024/03/28 10:43:01;;;;;;;1.33;0.50;;;8.20;99.90;;;;;;5034984;28;20501;-86
2024/03/28 10:45:39;;;;;;;2.65;0.40;;;8.30;99.90;;;;;;5026378;28;20065;-86
2024/03/28 10:48:13;;;;;;;1.10;0.60;;;8.30;99.90;;;;;;5019681;28;20061;-86
2024/03/28 10:51:16;;;;;;;1.00;0.52;;;8.40;99.90;;;;;;5025408;28;20187;-86
2024/03/28 10:53:57;;;;;;;;;;;8.50;99.90;;;;;;5029807;28;20050;-85
2024/03/28 10:56:24;;;;;;;1.27;0.60;;;8.60;99.90;;;;;;5025568;28;19920;-86
2024/03/28 10:58:54;;;;;;;1.88;0.90;;;8.70;99.90;;;;;;5028121;28;20524;-86
2024/03/28 11:01:22;;;;;;;2.67;1.00;;;8.90;99.90;;;;;;5029681;28;20033;-86
2024/03/28 11:03:49;;;;;;;1.83;0.98;;;9.00;99.90;;;;;;5027155;28;20490;-87
2024/03/28 11:06:17;;;;;;;2.78;1.40;;;9.10;99.90;;;;;;5023045;28;20033;-86
2024/03/28 11:08:44;;;;;;;2.40;1.00;;;9.30;99.90;;;;;;5035264;28;20478;-86
2024/03/28 11:11:10;;;;;;;3.00;1.23;;;9.40;99.90;;;;;;5031605;28;20108;-87
2024/03/28 11:13:36;;;;;;;5.20;1.55;;;9.40;99.90;;;;;;5022271;28;20091;-87
2024/03/28 11:16:10;;;;;;;4.38;1.45;;;9.50;99.90;;;;;;5023850;28;20026;-86
2024/03/28 11:18:35;;;;;;;3.08;1.20;;;9.60;99.90;;;;;;5017644;28;20405;-86
2024/03/28 11:21:05;;;;;;;4.20;1.40;;;9.60;99.90;;;;;;5015654;28;20029;-86
2024/03/28 11:23:31;;;;;;;4.22;1.88;;;9.60;99.90;;;;;;5035344;28;20029;-86
2024/03/28 11:26:07;;;;;;;4.32;2.00;;;9.70;99.90;;;;;;5032881;28;20074;-86
2024/03/28 11:28:39;;;;;;;5.13;2.40;;;9.70;99.90;;;;;;5021512;28;20037;-85
2024/03/28 11:31:05;;;;;;;6.97;2.67;;;9.70;99.90;;;;;;5028659;28;20497;-84
2024/03/28 11:33:33;;;;;;;4.65;3.15;;;9.60;99.90;;;;;;5025541;28;20311;-85
2024/03/28 11:36:00;;;;;;;5.00;3.17;;;9.60;99.90;;;;;;5022720;28;20071;-85
2024/03/28 11:38:27;;;;;;;5.28;3.65;;;9.60;99.90;;;;;;5032403;28;20025;-84
2024/03/28 11:40:53;;;;;;;5.00;3.05;;;9.60;99.90;;;;;;5025790;28;20381;-86
2024/03/28 11:43:23;;;;;;;5.63;3.65;;;9.70;99.90;;;;;;5025577;28;20025;-85
2024/03/28 11:45:56;;;;;;;5.75;4.15;;;9.70;99.90;;;;;;5028518;28;20025;-85
2024/03/28 11:48:26;;;;;;;8.23;4.10;;;9.90;99.90;;;;;;5034457;28;20033;-85
2024/03/28 11:50:53;;;;;;;7.70;3.45;;;10.00;99.90;;;;;;5032103;28;20123;-84
2024/03/28 11:53:19;;;;;;;7.28;3.15;;;10.10;99.90;;;;;;5032540;28;20048;-85
2024/03/28 11:55:46;;;;;;;4.05;2.33;;;10.20;99.90;;;;;;5035116;28;20022;-85
2024/03/28 11:58:24;;;;;;;6.80;2.85;;;10.40;99.90;;;;;;5033675;28;20091;-85
2024/03/28 12:01:02;;;;;;;5.05;1.90;;;10.60;99.90;;;;;;5033981;28;20096;-85
2024/03/28 12:03:28;;;;;;;3.40;1.45;;;10.70;99.90;;;;;;5032453;28;20073;-84
2024/03/28 12:05:56;;;;;;;5.15;1.85;;;10.80;99.90;;;;;;5026866;28;20022;-84
2024/03/28 12:08:24;;;;;;;7.60;2.30;;;10.90;99.90;;;;;;5029644;28;20501;-85
2024/03/28 12:10:50;;;;;;;5.90;1.70;;;11.10;99.90;;;;;;5027362;28;20032;-85
2024/03/28 12:13:15;;;;;;;4.88;1.67;;;11.20;99.90;;;;;;5030482;28;22056;-84
2024/03/28 12:15:41;;;;;;;5.18;1.17;;;11.30;99.90;;;;;;5028762;28;20029;-84
2024/03/28 12:18:07;;;;;;;9.10;1.10;;;11.50;99.90;;;;;;5033948;28;20500;-85
2024/03/28 12:20:32;;;;;;;3.53;0.93;;;11.50;99.90;;;;;;5028969;28;20528;-85
2024/03/28 12:23:03;;;;;;;2.63;0.63;;;11.60;99.90;;;;;;5020524;28;20026;-85
2024/03/28 12:25:30;;;;;;;2.75;0.73;;;11.80;99.90;;;;;;5033671;28;20025;-84
2024/03/28 12:27:57;;;;;;;1.42;0.70;;;11.90;99.90;;;;;;5028996;28;20029;-84
2024/03/28 12:30:23;;;;;;;5.63;0.40;;;12.00;99.90;;;;;;5033332;28;20048;-83
2024/03/28 12:33:02;;;;;;;3.60;0.20;;;12.10;99.90;;;;;;5026208;28;20107;-84
2024/03/28 12:35:32;;;;;;;2.90;0.20;;;12.10;99.90;;;;;;5029470;28;20033;-83
2024/03/28 12:37:58;;;;;;;1.00;0.30;;;12.20;99.90;;;;;;5019304;28;20033;-83
2024/03/28 12:40:24;;;;;;;2.28;0.20;;;12.20;99.90;;;;;;5016617;28;20402;-82
2024/03/28 12:42:54;;;;;;;0.80;0.20;;;12.30;99.90;;;;;;5030997;28;20025;-83
2024/03/28 12:45:22;;;;;;;1.17;0.20;;;12.30;99.90;;;;;;5026689;28;20107;-84
2024/03/28 12:47:49;;;;;;;0.82;0.20;;;12.30;99.90;;;;;;5033406;28;20025;-84
2024/03/28 12:50:17;;;;;;;3.38;0.22;;;12.30;99.90;;;;;;5032028;28;20049;-84
2024/03/28 12:52:51;;;;;;;1.02;0.20;;;12.40;99.90;;;;;;5023741;28;20022;-84
2024/03/28 12:55:18;;;;;;;1.88;0.52;;;12.60;99.90;;;;;;5019979;28;20411;-85
2024/03/28 12:57:45;;;;;;;0.75;0.20;;;12.70;99.90;;;;;;5020993;28;20531;-84
2024/03/28 13:00:12;;;;;;;1.40;0.20;;;12.80;99.90;;;;;;5031824;28;20037;-84